createdAt,value
2023-05-25T00:01:03.075Z,8.10
2023-05-25T00:03:31.251Z,8.10
2023-05-25T00:05:58.836Z,8.00
2023-05-25T00:08:25.544Z,8.00
2023-05-25T00:10:52.407Z,8.00
2023-05-25T00:13:19.158Z,7.90
2023-05-25T00:15:46.042Z,7.90
2023-05-25T00:18:13.167Z,7.80
2023-05-25T00:20:40.071Z,7.80
2023-05-25T00:23:06.793Z,7.70
2023-05-25T00:25:33.543Z,7.70
2023-05-25T00:28:00.288Z,7.70
2023-05-25T00:30:27.023Z,7.60
2023-05-25T00:32:55.607Z,7.60
2023-05-25T00:35:22.343Z,7.50
2023-05-25T00:37:49.702Z,7.50
2023-05-25T00:40:18.542Z,7.50
2023-05-25T00:42:45.473Z,7.40
2023-05-25T00:45:12.828Z,7.40
2023-05-25T00:47:39.908Z,7.40
2023-05-25T00:50:09.409Z,7.30
2023-05-25T00:52:36.204Z,7.30
2023-05-25T00:55:03.647Z,7.30
2023-05-25T00:57:34.251Z,7.20
2023-05-25T01:00:02.289Z,7.20
2023-05-25T01:02:29.620Z,7.20
2023-05-25T01:05:01.010Z,7.20
2023-05-25T01:07:31.011Z,7.20
2023-05-25T01:10:01.543Z,7.20
2023-05-25T01:12:30.305Z,7.20
2023-05-25T01:14:57.476Z,7.10
2023-05-25T01:17:24.215Z,7.10
2023-05-25T01:20:08.785Z,7.00
2023-05-25T01:22:54.119Z,7.10
2023-05-25T01:25:25.234Z,7.10
2023-05-25T01:27:57.904Z,7.10
2023-05-25T01:30:26.798Z,7.10
2023-05-25T01:32:54.742Z,7.20
2023-05-25T01:35:23.456Z,7.20
2023-05-25T01:37:52.277Z,7.30
2023-05-25T01:40:19.035Z,7.30
2023-05-25T01:42:45.920Z,7.30
2023-05-25T01:45:14.419Z,7.30
2023-05-25T01:48:14.696Z,7.40
2023-05-25T01:50:58.040Z,7.40
2023-05-25T01:53:33.918Z,7.50
2023-05-25T01:56:04.892Z,7.60
2023-05-25T01:58:36.714Z,7.60
2023-05-25T02:01:03.726Z,7.60
2023-05-25T02:03:30.502Z,7.70
2023-05-25T02:05:57.990Z,7.70
2023-05-25T02:08:24.780Z,7.70
2023-05-25T02:10:51.623Z,7.80
2023-05-25T02:13:18.344Z,7.80
2023-05-25T02:15:45.267Z,7.90
2023-05-25T02:18:13.767Z,7.90
2023-05-25T02:20:40.871Z,8.00
2023-05-25T02:23:07.715Z,8.00
2023-05-25T02:25:34.455Z,8.10
2023-05-25T02:28:01.254Z,8.10
2023-05-25T02:30:27.988Z,8.10
2023-05-25T02:32:54.715Z,8.10
2023-05-25T02:35:21.439Z,8.10
2023-05-25T02:37:50.906Z,8.20
2023-05-25T02:40:19.143Z,8.20
2023-05-25T02:42:45.943Z,8.20
2023-05-25T02:45:12.866Z,8.20
2023-05-25T02:47:39.750Z,8.30
2023-05-25T02:50:06.910Z,8.30
2023-05-25T02:52:33.722Z,8.30
2023-05-25T02:55:01.020Z,8.30
2023-05-25T02:57:28.432Z,8.30
2023-05-25T02:59:55.157Z,8.40
2023-05-25T03:02:25.287Z,8.40
2023-05-25T03:04:53.909Z,8.40
2023-05-25T03:07:21.387Z,8.40
2023-05-25T03:09:48.148Z,8.40
2023-05-25T03:12:14.956Z,8.50
2023-05-25T03:14:41.685Z,8.40
2023-05-25T03:17:08.438Z,8.40
2023-05-25T03:19:35.160Z,8.50
2023-05-25T03:22:03.720Z,8.50
2023-05-25T03:24:30.682Z,8.50
2023-05-25T03:26:57.512Z,8.50
2023-05-25T03:29:24.163Z,8.60
2023-05-25T03:31:51.028Z,8.60
2023-05-25T03:34:17.877Z,8.60
2023-05-25T03:36:47.486Z,8.70
2023-05-25T03:39:14.226Z,8.70
2023-05-25T03:41:40.931Z,8.70
2023-05-25T03:44:07.584Z,8.70
2023-05-25T03:46:34.361Z,8.80
2023-05-25T03:49:01.134Z,8.80
2023-05-25T03:51:29.404Z,8.90
2023-05-25T03:53:56.275Z,8.90
2023-05-25T03:56:23.246Z,9.00
2023-05-25T03:58:50.026Z,9.00
2023-05-25T04:01:16.707Z,9.00
2023-05-25T04:03:43.534Z,9.10
2023-05-25T04:06:10.318Z,9.10
2023-05-25T04:08:37.016Z,9.10
2023-05-25T04:11:03.653Z,9.20
2023-05-25T04:13:30.646Z,9.30
2023-05-25T04:15:57.412Z,9.30
2023-05-25T04:18:24.084Z,9.30
2023-05-25T04:20:50.823Z,9.30
2023-05-25T04:23:19.578Z,9.30
2023-05-25T04:25:46.527Z,9.30
2023-05-25T04:28:13.264Z,9.30
2023-05-25T04:30:41.565Z,9.30
2023-05-25T04:33:11.613Z,9.30
2023-05-25T04:35:38.339Z,9.40
2023-05-25T04:38:05.021Z,9.30
2023-05-25T04:40:33.257Z,9.30
2023-05-25T04:43:00.055Z,9.40
2023-05-25T04:45:27.491Z,9.40
2023-05-25T04:47:54.386Z,9.40
2023-05-25T04:50:21.160Z,9.40
2023-05-25T04:52:47.818Z,9.40
2023-05-25T04:55:14.616Z,9.40
2023-05-25T04:57:42.087Z,9.50
2023-05-25T05:00:11.110Z,9.50
2023-05-25T05:02:37.886Z,9.50
2023-05-25T05:05:04.845Z,9.50
2023-05-25T05:07:31.757Z,9.50
2023-05-25T05:09:58.541Z,9.60
2023-05-25T05:12:25.312Z,9.60
2023-05-25T05:14:52.176Z,9.70
2023-05-25T05:17:19.133Z,9.70
2023-05-25T05:19:45.836Z,9.70
2023-05-25T05:22:15.915Z,9.80
2023-05-25T05:24:42.910Z,9.90
2023-05-25T05:27:10.669Z,10.00
2023-05-25T05:29:37.493Z,10.00
2023-05-25T05:32:04.350Z,10.00
2023-05-25T05:34:31.529Z,10.00
2023-05-25T05:37:00.064Z,10.10
2023-05-25T05:39:27.386Z,10.10
2023-05-25T05:41:55.178Z,10.10
2023-05-25T05:44:24.614Z,10.10
2023-05-25T05:46:53.081Z,10.10
2023-05-25T05:49:19.749Z,10.10
2023-05-25T05:51:46.494Z,10.10
2023-05-25T05:54:13.192Z,10.00
2023-05-25T05:56:39.922Z,10.00
2023-05-25T05:59:06.730Z,10.10
2023-05-25T06:01:33.433Z,10.10
2023-05-25T06:04:00.229Z,10.10
2023-05-25T06:06:27.581Z,10.10
2023-05-25T06:08:54.504Z,10.10
2023-05-25T06:11:21.464Z,10.10
2023-05-25T06:13:48.121Z,10.20
2023-05-25T06:16:14.988Z,10.20
2023-05-25T06:18:41.806Z,10.20
2023-05-25T06:21:09.458Z,10.20
2023-05-25T06:23:36.886Z,10.20
2023-05-25T06:26:05.345Z,10.20
2023-05-25T06:28:32.499Z,10.30
2023-05-25T06:30:59.391Z,10.30
2023-05-25T06:33:26.390Z,10.30
2023-05-25T06:35:56.420Z,10.30
2023-05-25T06:38:23.953Z,10.30
2023-05-25T06:40:50.796Z,10.40
2023-05-25T06:43:17.440Z,10.40
2023-05-25T06:45:44.433Z,10.50
2023-05-25T06:48:11.609Z,10.50
2023-05-25T06:50:39.702Z,10.60
2023-05-25T06:53:06.707Z,10.60
2023-05-25T06:55:33.487Z,10.60
2023-05-25T06:58:00.227Z,10.60
2023-05-25T07:00:27.091Z,10.60
2023-05-25T07:02:54.031Z,10.60
2023-05-25T07:05:21.073Z,10.60
2023-05-25T07:07:47.830Z,10.70
2023-05-25T07:10:14.573Z,10.70
2023-05-25T07:12:41.226Z,10.70
2023-05-25T07:15:08.665Z,10.80
2023-05-25T07:17:36.536Z,10.80
2023-05-25T07:20:04.853Z,10.90
2023-05-25T07:22:31.705Z,10.90
2023-05-25T07:24:58.553Z,11.00
2023-05-25T07:27:25.466Z,10.90
2023-05-25T07:29:52.204Z,10.90
2023-05-25T07:32:18.973Z,10.90
2023-05-25T07:34:45.716Z,11.00
2023-05-25T07:37:12.521Z,11.00
2023-05-25T07:39:40.527Z,11.10
2023-05-25T07:42:07.382Z,11.10
2023-05-25T07:44:34.506Z,11.20
2023-05-25T07:47:01.424Z,11.20
2023-05-25T07:49:28.214Z,11.20
2023-05-25T07:51:54.993Z,11.20
2023-05-25T07:54:21.674Z,11.20
2023-05-25T07:56:48.530Z,11.30
2023-05-25T07:59:15.505Z,11.30
2023-05-25T08:01:42.243Z,11.20
2023-05-25T08:04:09.552Z,11.30
2023-05-25T08:06:36.545Z,11.30
2023-05-25T08:09:04.804Z,11.40
2023-05-25T08:11:31.546Z,11.50
2023-05-25T08:14:00.093Z,11.60
2023-05-25T08:16:26.978Z,11.70
2023-05-25T08:18:53.705Z,11.70
2023-05-25T08:21:20.524Z,11.80
2023-05-25T08:23:47.272Z,11.90
2023-05-25T08:26:34.083Z,11.90
2023-05-25T08:29:02.412Z,12.00
2023-05-25T08:31:29.205Z,12.20
2023-05-25T08:33:56.030Z,12.30
2023-05-25T08:36:22.795Z,12.40
2023-05-25T08:38:49.457Z,12.50
2023-05-25T08:41:16.766Z,12.50
2023-05-25T08:43:43.596Z,12.50
2023-05-25T08:46:10.312Z,12.50
2023-05-25T08:48:42.468Z,12.60
2023-05-25T08:51:11.950Z,12.60
2023-05-25T08:53:43.765Z,12.80
2023-05-25T08:56:20.721Z,12.90
2023-05-25T08:59:00.992Z,12.90
2023-05-25T09:01:32.389Z,12.80
2023-05-25T09:04:01.204Z,12.80
2023-05-25T09:06:28.244Z,12.80
2023-05-25T09:08:55.055Z,12.90
2023-05-25T09:11:35.958Z,13.00
2023-05-25T09:14:04.765Z,13.10
2023-05-25T09:16:33.431Z,13.40
2023-05-25T09:19:01.912Z,13.60
2023-05-25T09:21:28.806Z,13.70
2023-05-25T09:23:55.759Z,14.00
2023-05-25T09:26:22.541Z,14.10
2023-05-25T09:28:49.352Z,14.30
2023-05-25T09:31:16.652Z,14.30
2023-05-25T09:33:44.182Z,14.20
2023-05-25T09:36:12.859Z,14.20
2023-05-25T09:38:40.917Z,14.30
2023-05-25T09:41:07.966Z,14.20
2023-05-25T09:43:44.585Z,14.30
2023-05-25T09:46:14.271Z,14.50
2023-05-25T09:48:41.964Z,14.90
2023-05-25T09:51:09.218Z,14.90
2023-05-25T09:53:39.704Z,15.00
2023-05-25T09:56:06.537Z,15.10
2023-05-25T09:58:33.210Z,15.30
2023-05-25T10:01:00.883Z,15.40
2023-05-25T10:03:27.801Z,15.50
2023-05-25T10:05:55.303Z,15.50
2023-05-25T10:08:25.706Z,15.60
2023-05-25T10:10:53.919Z,15.70
2023-05-25T10:13:22.876Z,15.70
2023-05-25T10:15:54.596Z,15.70
2023-05-25T10:18:27.413Z,15.60
2023-05-25T10:21:03.907Z,15.60
2023-05-25T10:23:37.869Z,15.50
2023-05-25T10:26:06.397Z,15.50
2023-05-25T10:28:37.638Z,15.40
2023-05-25T10:31:05.171Z,15.20
2023-05-25T10:33:33.564Z,15.00
2023-05-25T10:38:36.725Z,15.30
2023-05-25T10:41:05.657Z,15.40
2023-05-25T10:43:32.832Z,15.70
2023-05-25T10:45:59.811Z,15.90
2023-05-25T10:48:39.456Z,16.00
2023-05-25T10:51:08.331Z,16.10
2023-05-25T10:53:36.745Z,16.10
2023-05-25T10:56:05.166Z,16.30
2023-05-25T10:58:32.943Z,16.40
2023-05-25T11:01:03.623Z,16.50
2023-05-25T11:04:18.297Z,16.40
2023-05-25T11:06:47.947Z,16.40
2023-05-25T11:09:25.597Z,16.20
2023-05-25T11:11:53.100Z,16.00
2023-05-25T11:14:44.785Z,16.10
2023-05-25T11:17:15.628Z,15.90
2023-05-25T11:19:51.105Z,16.10
2023-05-25T11:22:22.163Z,16.30
2023-05-25T11:24:50.713Z,16.10
2023-05-25T11:27:24.432Z,16.00
2023-05-25T11:29:52.254Z,16.10
2023-05-25T11:32:19.270Z,16.40
2023-05-25T11:34:47.946Z,16.40
2023-05-25T11:37:21.164Z,16.40
2023-05-25T11:39:51.872Z,16.50
2023-05-25T11:42:23.141Z,16.50
2023-05-25T11:44:50.410Z,16.60
2023-05-25T11:47:19.542Z,16.60
2023-05-25T11:49:47.644Z,16.70
2023-05-25T11:52:19.456Z,16.90
2023-05-25T11:54:46.657Z,17.00
2023-05-25T11:57:19.652Z,17.00
2023-05-25T11:59:50.202Z,17.10
2023-05-25T12:02:16.994Z,17.10
2023-05-25T12:05:02.371Z,17.30
2023-05-25T12:07:30.595Z,17.30
2023-05-25T12:10:12.164Z,17.30
2023-05-25T12:12:47.227Z,17.30
2023-05-25T12:15:18.256Z,17.40
2023-05-25T12:17:47.338Z,17.40
2023-05-25T12:20:16.745Z,17.40
2023-05-25T12:22:44.470Z,17.40
2023-05-25T12:25:12.620Z,17.30
2023-05-25T12:27:40.304Z,17.30
2023-05-25T12:30:09.566Z,17.50
2023-05-25T12:32:55.028Z,17.30
2023-05-25T12:35:22.027Z,17.20
2023-05-25T12:37:48.737Z,17.40
2023-05-25T12:40:20.423Z,17.30
2023-05-25T12:42:56.779Z,17.40
2023-05-25T12:45:23.967Z,17.50
2023-05-25T12:47:51.048Z,17.60
2023-05-25T12:50:19.393Z,17.80
2023-05-25T12:52:47.837Z,17.90
2023-05-25T12:55:28.126Z,17.90
2023-05-25T12:57:55.816Z,18.00
2023-05-25T13:00:27.361Z,18.20
2023-05-25T13:02:54.661Z,18.30
2023-05-25T13:05:29.141Z,18.20
2023-05-25T13:07:57.330Z,18.30
2023-05-25T13:10:25.031Z,18.10
2023-05-25T13:12:53.928Z,18.20
2023-05-25T13:15:21.891Z,18.30
2023-05-25T13:17:50.424Z,18.30
2023-05-25T13:20:23.020Z,18.30
2023-05-25T13:22:51.771Z,18.20
2023-05-25T13:25:19.339Z,18.30
2023-05-25T13:27:49.035Z,18.40
2023-05-25T13:30:15.897Z,18.40
2023-05-25T13:32:43.751Z,18.50
2023-05-25T13:35:37.902Z,18.60
2023-05-25T13:38:05.103Z,18.60
2023-05-25T13:40:31.826Z,18.70
2023-05-25T13:42:58.654Z,18.80
2023-05-25T13:45:25.401Z,18.70
2023-05-25T13:47:52.435Z,18.60
2023-05-25T13:50:20.199Z,18.70
2023-05-25T13:52:46.876Z,18.60
2023-05-25T13:55:13.600Z,18.70
2023-05-25T13:57:40.349Z,18.80
2023-05-25T14:00:08.516Z,18.90
2023-05-25T14:02:35.722Z,18.80
2023-05-25T14:05:02.589Z,18.80
2023-05-25T14:07:29.291Z,18.80
2023-05-25T14:09:57.484Z,18.90
2023-05-25T14:12:24.954Z,18.90
2023-05-25T14:14:51.740Z,18.70
2023-05-25T14:17:18.547Z,18.60
2023-05-25T14:19:45.379Z,18.70
2023-05-25T14:22:14.442Z,18.70
2023-05-25T14:24:42.039Z,18.90
2023-05-25T14:27:09.152Z,18.90
2023-05-25T14:29:36.192Z,19.00
2023-05-25T14:32:03.148Z,19.10
2023-05-25T14:34:29.938Z,19.10
2023-05-25T14:36:56.682Z,19.00
2023-05-25T14:39:23.433Z,18.90
2023-05-25T14:41:50.234Z,18.80
2023-05-25T14:44:17.019Z,18.90
2023-05-25T14:46:44.002Z,19.00
2023-05-25T14:49:10.931Z,19.00
2023-05-25T14:51:38.016Z,19.00
2023-05-25T14:54:07.261Z,19.00
2023-05-25T14:56:34.240Z,19.10
2023-05-25T14:59:00.991Z,19.30
2023-05-25T15:01:29.262Z,19.30
2023-05-25T15:03:56.426Z,19.30
2023-05-25T15:06:23.304Z,19.20
2023-05-25T15:08:49.984Z,19.20
2023-05-25T15:11:18.026Z,19.20
2023-05-25T15:13:44.905Z,19.10
2023-05-25T15:16:16.277Z,19.10
2023-05-25T15:18:43.639Z,19.00
2023-05-25T15:21:10.463Z,19.00
2023-05-25T15:23:37.256Z,19.20
2023-05-25T15:26:04.846Z,19.20
2023-05-25T15:28:31.842Z,19.20
2023-05-25T15:31:00.840Z,19.20
2023-05-25T15:33:39.925Z,19.20
2023-05-25T15:36:15.004Z,19.10
2023-05-25T15:38:43.282Z,19.20
2023-05-25T15:41:11.352Z,19.20
2023-05-25T15:43:38.045Z,19.20
2023-05-25T15:46:04.808Z,19.20
2023-05-25T15:48:31.521Z,19.20
2023-05-25T15:50:58.176Z,19.20
2023-05-25T15:53:24.871Z,19.30
2023-05-25T15:55:51.632Z,19.30
2023-05-25T15:58:18.392Z,19.40
2023-05-25T16:00:45.152Z,19.40
2023-05-25T16:03:11.852Z,19.30
2023-05-25T16:05:38.647Z,19.20
2023-05-25T16:08:05.386Z,19.00
2023-05-25T16:10:32.069Z,18.80
2023-05-25T16:12:58.750Z,18.80
2023-05-25T16:15:26.101Z,18.90
2023-05-25T16:17:52.826Z,18.90
2023-05-25T16:20:19.606Z,19.00
2023-05-25T16:22:46.463Z,19.00
2023-05-25T16:25:13.208Z,18.90
2023-05-25T16:27:43.608Z,18.90
2023-05-25T16:30:12.557Z,18.80
2023-05-25T16:32:40.151Z,18.80
2023-05-25T16:35:07.200Z,18.70
2023-05-25T16:37:33.913Z,18.60
2023-05-25T16:40:00.706Z,18.50
2023-05-25T16:42:27.444Z,18.50
2023-05-25T16:44:54.323Z,18.40
2023-05-25T16:47:21.810Z,18.30
2023-05-25T16:49:48.899Z,18.30
2023-05-25T16:52:15.702Z,18.30
2023-05-25T16:54:42.405Z,18.20
2023-05-25T16:57:11.979Z,18.20
2023-05-25T16:59:39.313Z,18.20
2023-05-25T17:02:06.549Z,18.00
2023-05-25T17:04:33.379Z,17.90
2023-05-25T17:07:00.105Z,17.90
2023-05-25T17:09:26.886Z,17.80
2023-05-25T17:11:54.022Z,17.70
2023-05-25T17:14:21.016Z,17.50
2023-05-25T17:16:47.775Z,17.50
2023-05-25T17:19:15.042Z,17.40
2023-05-25T17:21:44.709Z,17.20
2023-05-25T17:24:11.660Z,17.00
2023-05-25T17:26:38.396Z,16.90
2023-05-25T17:29:06.118Z,16.90
2023-05-25T17:31:33.388Z,16.80
2023-05-25T17:34:00.196Z,16.70
2023-05-25T17:36:26.945Z,16.50
2023-05-25T17:38:53.723Z,16.40
2023-05-25T17:41:20.848Z,16.40
2023-05-25T17:43:47.596Z,16.30
2023-05-25T17:46:14.339Z,16.10
2023-05-25T17:48:41.116Z,16.00
2023-05-25T17:51:07.872Z,15.90
2023-05-25T17:53:34.545Z,15.90
2023-05-25T17:56:01.206Z,15.80
2023-05-25T17:58:27.946Z,15.70
2023-05-25T18:00:54.684Z,15.50
2023-05-25T18:03:21.669Z,15.50
2023-05-25T18:05:48.394Z,15.40
2023-05-25T18:08:15.082Z,15.40
2023-05-25T18:10:41.862Z,15.40
2023-05-25T18:13:08.533Z,15.30
2023-05-25T18:15:35.276Z,15.20
2023-05-25T18:18:03.751Z,15.20
2023-05-25T18:20:30.524Z,15.10
2023-05-25T18:22:58.648Z,15.00
2023-05-25T18:25:25.342Z,14.90
2023-05-25T18:27:52.149Z,14.80
2023-05-25T18:30:19.023Z,14.80
2023-05-25T18:32:45.790Z,14.70
2023-05-25T18:35:12.567Z,14.70
2023-05-25T18:37:39.314Z,14.60
2023-05-25T18:40:07.050Z,14.50
2023-05-25T18:42:34.882Z,14.40
2023-05-25T18:45:01.687Z,14.30
2023-05-25T18:47:28.383Z,14.30
2023-05-25T18:49:55.271Z,14.30
2023-05-25T18:52:22.437Z,14.20
2023-05-25T18:54:49.644Z,14.10
2023-05-25T18:57:16.387Z,14.00
2023-05-25T18:59:43.116Z,13.90
2023-05-25T19:02:09.942Z,13.90
2023-05-25T19:04:37.589Z,13.90
2023-05-25T19:07:04.461Z,13.70
2023-05-25T19:09:31.220Z,13.70
2023-05-25T19:11:57.934Z,13.70
2023-05-25T19:14:24.689Z,13.70
2023-05-25T19:16:51.520Z,13.60
2023-05-25T19:19:18.335Z,13.50
2023-05-25T19:21:45.453Z,13.50
2023-05-25T19:24:12.178Z,13.40
2023-05-25T19:26:39.216Z,13.30
2023-05-25T19:29:05.960Z,13.20
2023-05-25T19:31:32.625Z,13.20
2023-05-25T19:33:59.298Z,13.10
2023-05-25T19:36:26.283Z,13.00
2023-05-25T19:38:53.028Z,13.00
2023-05-25T19:41:19.757Z,12.90
2023-05-25T19:43:46.889Z,12.90
2023-05-25T19:46:13.576Z,12.80
2023-05-25T19:48:40.637Z,12.80
2023-05-25T19:51:07.415Z,12.70
2023-05-25T19:53:34.186Z,12.70
2023-05-25T19:56:01.138Z,12.60
2023-05-25T19:58:27.837Z,12.50
2023-05-25T20:00:54.835Z,12.40
2023-05-25T20:03:21.709Z,12.40
2023-05-25T20:05:48.537Z,12.30
2023-05-25T20:08:15.341Z,12.20
2023-05-25T20:10:43.988Z,12.20
2023-05-25T20:13:11.054Z,12.20
2023-05-25T20:15:37.934Z,12.10
2023-05-25T20:18:04.668Z,12.10
2023-05-25T20:20:32.156Z,12.00
2023-05-25T20:22:58.891Z,12.00
2023-05-25T20:25:25.612Z,12.00
2023-05-25T20:27:52.279Z,12.00
2023-05-25T20:30:19.018Z,11.90
2023-05-25T20:32:45.847Z,11.90
2023-05-25T20:35:13.310Z,11.80
2023-05-25T20:37:39.965Z,11.80
2023-05-25T20:40:07.155Z,11.80
2023-05-25T20:42:33.815Z,11.80
2023-05-25T20:45:00.525Z,11.80
2023-05-25T20:47:27.562Z,11.70
2023-05-25T20:49:54.237Z,11.60
2023-05-25T20:52:22.770Z,11.60
2023-05-25T20:54:49.625Z,11.60
2023-05-25T20:57:16.773Z,11.60
2023-05-25T20:59:43.480Z,11.50
2023-05-25T21:02:10.187Z,11.50
2023-05-25T21:04:36.905Z,11.50
2023-05-25T21:07:03.759Z,11.40
2023-05-25T21:09:30.544Z,11.40
2023-05-25T21:11:57.277Z,11.40
2023-05-25T21:14:23.963Z,11.30
2023-05-25T21:16:51.345Z,11.20
2023-05-25T21:19:18.001Z,11.20
2023-05-25T21:21:44.652Z,11.20
2023-05-25T21:24:11.304Z,11.20
2023-05-25T21:26:38.114Z,11.20
2023-05-25T21:29:04.867Z,11.10
2023-05-25T21:31:31.587Z,11.10
2023-05-25T21:34:00.014Z,11.10
2023-05-25T21:36:27.021Z,11.10
2023-05-25T21:38:53.751Z,11.10
2023-05-25T21:41:20.530Z,11.00
2023-05-25T21:43:47.269Z,11.00
2023-05-25T21:46:14.054Z,10.90
2023-05-25T21:48:40.729Z,10.90
2023-05-25T21:51:07.381Z,10.80
2023-05-25T21:53:34.134Z,10.80
2023-05-25T21:56:00.843Z,10.80
2023-05-25T21:58:27.581Z,10.70
2023-05-25T22:00:54.315Z,10.70
2023-05-25T22:03:21.231Z,10.70
2023-05-25T22:05:47.954Z,10.60
2023-05-25T22:08:14.681Z,10.60
2023-05-25T22:10:41.555Z,10.50
2023-05-25T22:13:08.270Z,10.50
2023-05-25T22:15:35.266Z,10.40
2023-05-25T22:18:02.046Z,10.40
2023-05-25T22:20:28.795Z,10.40
2023-05-25T22:22:55.562Z,10.30
2023-05-25T22:25:22.303Z,10.30
2023-05-25T22:27:48.976Z,10.20
2023-05-25T22:30:15.805Z,10.20
2023-05-25T22:32:42.463Z,10.10
2023-05-25T22:35:09.382Z,10.10
2023-05-25T22:37:36.139Z,10.00
2023-05-25T22:40:05.788Z,9.90
2023-05-25T22:42:32.487Z,9.90
2023-05-25T22:44:59.287Z,9.90
2023-05-25T22:47:26.036Z,9.90
2023-05-25T22:49:52.705Z,9.90
2023-05-25T22:52:19.455Z,9.90
2023-05-25T22:54:46.160Z,9.90
2023-05-25T22:57:12.839Z,9.90
2023-05-25T22:59:39.541Z,9.80
2023-05-25T23:02:06.648Z,9.80
2023-05-25T23:04:35.670Z,9.80
2023-05-25T23:07:02.570Z,9.80
2023-05-25T23:09:29.222Z,9.80
2023-05-25T23:11:55.879Z,9.80
2023-05-25T23:14:22.522Z,9.70
2023-05-25T23:16:49.331Z,9.70
2023-05-25T23:19:16.722Z,9.60
2023-05-25T23:21:43.881Z,9.60
2023-05-25T23:24:10.719Z,9.50
2023-05-25T23:26:37.377Z,9.50
2023-05-25T23:29:04.136Z,9.50
2023-05-25T23:31:31.034Z,9.40
2023-05-25T23:33:57.777Z,9.40
2023-05-25T23:36:28.027Z,9.40
2023-05-25T23:38:54.752Z,9.40
2023-05-25T23:41:22.080Z,9.40
2023-05-25T23:43:48.864Z,9.40
2023-05-25T23:46:16.339Z,9.40
2023-05-25T23:48:44.070Z,9.40
2023-05-25T23:51:11.005Z,9.50
2023-05-25T23:53:38.681Z,9.50
2023-05-25T23:56:05.582Z,9.50
2023-05-25T23:58:32.268Z,9.60
